sensor_id;sensor_type;location;lat;lon;timestamp;pressure;altitude;pressure_sealevel;temperature;humidity
48156;BME280;35568;48.104;11.782;2023-03-26T00:01:40;94965.46;;;7.14;45.48
48156;BME280;35568;48.104;11.782;2023-03-26T00:04:06;94967.26;;;6.87;45.60
48156;BME280;35568;48.104;11.782;2023-03-26T00:06:35;94964.97;;;7.08;45.57
48156;BME280;35568;48.104;11.782;2023-03-26T00:09:05;94961.43;;;7.13;45.59
48156;BME280;35568;48.104;11.782;2023-03-26T00:11:33;94956.39;;;7.39;45.32
48156;BME280;35568;48.104;11.782;2023-03-26T00:14:00;94956.41;;;7.07;45.66
48156;BME280;35568;48.104;11.782;2023-03-26T00:16:28;94947.72;;;7.31;45.52
48156;BME280;35568;48.104;11.782;2023-03-26T00:18:56;94946.75;;;7.40;45.56
48156;BME280;35568;48.104;11.782;2023-03-26T00:21:24;94945.22;;;6.99;45.64
48156;BME280;35568;48.104;11.782;2023-03-26T00:23:52;94942.32;;;7.46;45.15
48156;BME280;35568;48.104;11.782;2023-03-26T00:26:19;94940.93;;;6.97;45.49
48156;BME280;35568;48.104;11.782;2023-03-26T00:28:47;94944.49;;;7.25;45.38
48156;BME280;35568;48.104;11.782;2023-03-26T00:31:14;94944.17;;;7.25;45.37
48156;BME280;35568;48.104;11.782;2023-03-26T00:33:41;94942.26;;;7.18;45.50
48156;BME280;35568;48.104;11.782;2023-03-26T00:36:11;94938.17;;;6.87;45.87
48156;BME280;35568;48.104;11.782;2023-03-26T00:38:39;94938.66;;;7.16;45.90
48156;BME280;35568;48.104;11.782;2023-03-26T00:41:08;94941.76;;;7.00;45.75
48156;BME280;35568;48.104;11.782;2023-03-26T00:43:35;94937.88;;;7.27;45.63
48156;BME280;35568;48.104;11.782;2023-03-26T00:46:02;94932.40;;;7.13;45.81
48156;BME280;35568;48.104;11.782;2023-03-26T00:48:29;94933.79;;;7.06;46.05
48156;BME280;35568;48.104;11.782;2023-03-26T00:50:56;94925.89;;;6.97;45.82
48156;BME280;35568;48.104;11.782;2023-03-26T00:53:23;94925.83;;;7.11;45.57
48156;BME280;35568;48.104;11.782;2023-03-26T00:55:50;94924.96;;;7.02;45.68
48156;BME280;35568;48.104;11.782;2023-03-26T00:58:16;94929.98;;;6.72;46.20
48156;BME280;35568;48.104;11.782;2023-03-26T01:00:48;94924.03;;;6.80;46.42
48156;BME280;35568;48.104;11.782;2023-03-26T01:03:18;94920.50;;;6.90;46.59
48156;BME280;35568;48.104;11.782;2023-03-26T01:05:48;94919.90;;;6.74;46.56
48156;BME280;35568;48.104;11.782;2023-03-26T01:08:22;94921.00;;;7.07;46.05
48156;BME280;35568;48.104;11.782;2023-03-26T01:10:51;94918.55;;;6.96;46.17
48156;BME280;35568;48.104;11.782;2023-03-26T01:13:21;94912.59;;;6.64;46.28
48156;BME280;35568;48.104;11.782;2023-03-26T01:15:50;94923.40;;;6.95;46.38
48156;BME280;35568;48.104;11.782;2023-03-26T01:18:20;94917.86;;;6.89;46.00
48156;BME280;35568;48.104;11.782;2023-03-26T01:20:48;94919.26;;;7.01;46.12
48156;BME280;35568;48.104;11.782;2023-03-26T01:23:21;94922.06;;;7.18;45.81
48156;BME280;35568;48.104;11.782;2023-03-26T01:25:55;94926.59;;;6.90;46.30
48156;BME280;35568;48.104;11.782;2023-03-26T01:28:28;94926.59;;;6.81;46.14
48156;BME280;35568;48.104;11.782;2023-03-26T01:31:03;94929.18;;;7.32;46.09
48156;BME280;35568;48.104;11.782;2023-03-26T01:33:38;94923.48;;;7.37;46.14
48156;BME280;35568;48.104;11.782;2023-03-26T01:36:12;94921.34;;;6.99;46.15
48156;BME280;35568;48.104;11.782;2023-03-26T01:38:48;94920.85;;;7.03;46.20
48156;BME280;35568;48.104;11.782;2023-03-26T01:41:22;94916.17;;;7.12;46.12
48156;BME280;35568;48.104;11.782;2023-03-26T01:43:55;94912.19;;;7.01;46.23
48156;BME280;35568;48.104;11.782;2023-03-26T01:46:24;94909.51;;;6.59;46.56
48156;BME280;35568;48.104;11.782;2023-03-26T01:48:53;94907.36;;;6.72;46.74
48156;BME280;35568;48.104;11.782;2023-03-26T01:51:29;94903.46;;;6.46;47.16
48156;BME280;35568;48.104;11.782;2023-03-26T01:53:56;94902.98;;;6.82;47.14
48156;BME280;35568;48.104;11.782;2023-03-26T01:56:26;94899.02;;;6.51;46.90
48156;BME280;35568;48.104;11.782;2023-03-26T01:59:07;94897.69;;;6.74;46.96
48156;BME280;35568;48.104;11.782;2023-03-26T02:01:43;94898.68;;;7.01;46.96
48156;BME280;35568;48.104;11.782;2023-03-26T02:04:19;94892.73;;;6.47;47.36
48156;BME280;35568;48.104;11.782;2023-03-26T02:06:52;94896.50;;;6.56;47.36
48156;BME280;35568;48.104;11.782;2023-03-26T02:09:26;94895.90;;;6.54;47.25
48156;BME280;35568;48.104;11.782;2023-03-26T02:11:54;94888.64;;;6.27;47.69
48156;BME280;35568;48.104;11.782;2023-03-26T02:14:22;94881.88;;;6.51;47.47
48156;BME280;35568;48.104;11.782;2023-03-26T02:16:50;94886.56;;;6.88;47.26
48156;BME280;35568;48.104;11.782;2023-03-26T02:19:17;94880.02;;;6.79;47.39
48156;BME280;35568;48.104;11.782;2023-03-26T02:21:44;94881.78;;;6.54;47.41
48156;BME280;35568;48.104;11.782;2023-03-26T02:24:10;94882.04;;;6.93;47.30
48156;BME280;35568;48.104;11.782;2023-03-26T02:26:37;94880.06;;;6.44;47.53
48156;BME280;35568;48.104;11.782;2023-03-26T02:29:04;94870.77;;;6.73;47.52
48156;BME280;35568;48.104;11.782;2023-03-26T02:31:31;94873.61;;;6.37;47.73
48156;BME280;35568;48.104;11.782;2023-03-26T02:33:58;94870.12;;;6.34;47.76
48156;BME280;35568;48.104;11.782;2023-03-26T02:36:26;94864.41;;;6.19;48.06
48156;BME280;35568;48.104;11.782;2023-03-26T02:38:54;94863.14;;;6.46;47.96
48156;BME280;35568;48.104;11.782;2023-03-26T02:41:21;94861.92;;;6.39;47.76
48156;BME280;35568;48.104;11.782;2023-03-26T02:43:48;94855.15;;;6.50;47.99
48156;BME280;35568;48.104;11.782;2023-03-26T02:46:15;94850.34;;;6.61;47.84
48156;BME280;35568;48.104;11.782;2023-03-26T02:48:42;94851.00;;;6.27;47.99
48156;BME280;35568;48.104;11.782;2023-03-26T02:51:09;94847.40;;;6.83;47.64
48156;BME280;35568;48.104;11.782;2023-03-26T02:53:36;94849.40;;;7.18;47.29
48156;BME280;35568;48.104;11.782;2023-03-26T02:56:03;94848.92;;;6.91;47.32
48156;BME280;35568;48.104;11.782;2023-03-26T02:58:30;94849.71;;;6.92;46.94
48156;BME280;35568;48.104;11.782;2023-03-26T03:03:01;94842.79;;;7.12;46.51
48156;BME280;35568;48.104;11.782;2023-03-26T03:05:29;94834.51;;;6.95;46.98
48156;BME280;35568;48.104;11.782;2023-03-26T03:07:56;94829.58;;;6.75;47.29
48156;BME280;35568;48.104;11.782;2023-03-26T03:10:23;94827.52;;;6.70;47.44
48156;BME280;35568;48.104;11.782;2023-03-26T03:12:50;94823.53;;;6.58;47.67
48156;BME280;35568;48.104;11.782;2023-03-26T03:15:17;94820.35;;;6.36;48.06
48156;BME280;35568;48.104;11.782;2023-03-26T03:17:44;94813.76;;;6.51;47.92
48156;BME280;35568;48.104;11.782;2023-03-26T03:20:12;94815.13;;;6.78;47.86
48156;BME280;35568;48.104;11.782;2023-03-26T03:22:39;94811.01;;;6.32;48.19
48156;BME280;35568;48.104;11.782;2023-03-26T03:25:08;94805.93;;;6.33;48.27
48156;BME280;35568;48.104;11.782;2023-03-26T03:27:35;94804.19;;;6.52;48.09
48156;BME280;35568;48.104;11.782;2023-03-26T03:30:03;94800.88;;;6.81;48.00
48156;BME280;35568;48.104;11.782;2023-03-26T03:32:30;94800.03;;;6.50;47.71
48156;BME280;35568;48.104;11.782;2023-03-26T03:34:57;94797.93;;;6.65;47.78
48156;BME280;35568;48.104;11.782;2023-03-26T03:37:24;94796.26;;;6.59;47.95
48156;BME280;35568;48.104;11.782;2023-03-26T03:39:50;94795.35;;;6.87;47.58
48156;BME280;35568;48.104;11.782;2023-03-26T03:42:17;94796.35;;;6.84;47.61
48156;BME280;35568;48.104;11.782;2023-03-26T03:44:44;94798.11;;;6.77;47.69
48156;BME280;35568;48.104;11.782;2023-03-26T03:47:11;94799.75;;;6.85;47.59
48156;BME280;35568;48.104;11.782;2023-03-26T03:49:38;94795.38;;;6.93;47.51
48156;BME280;35568;48.104;11.782;2023-03-26T03:52:04;94791.84;;;6.90;47.52
48156;BME280;35568;48.104;11.782;2023-03-26T03:54:32;94794.72;;;7.09;47.39
48156;BME280;35568;48.104;11.782;2023-03-26T03:56:58;94798.13;;;7.10;47.21
48156;BME280;35568;48.104;11.782;2023-03-26T03:59:25;94787.95;;;6.92;47.48
48156;BME280;35568;48.104;11.782;2023-03-26T04:01:52;94789.38;;;6.85;47.72
48156;BME280;35568;48.104;11.782;2023-03-26T04:04:19;94783.91;;;7.10;47.72
48156;BME280;35568;48.104;11.782;2023-03-26T04:06:46;94787.81;;;7.12;47.73
48156;BME280;35568;48.104;11.782;2023-03-26T04:09:12;94787.55;;;7.05;47.83
48156;BME280;35568;48.104;11.782;2023-03-26T04:11:39;94783.49;;;7.07;47.90
48156;BME280;35568;48.104;11.782;2023-03-26T04:14:06;94783.53;;;6.76;48.04
48156;BME280;35568;48.104;11.782;2023-03-26T04:16:33;94784.44;;;6.67;47.99
48156;BME280;35568;48.104;11.782;2023-03-26T04:19:00;94782.22;;;7.17;48.06
48156;BME280;35568;48.104;11.782;2023-03-26T04:21:27;94779.53;;;7.23;47.81
48156;BME280;35568;48.104;11.782;2023-03-26T04:23:54;94771.10;;;7.25;47.35
48156;BME280;35568;48.104;11.782;2023-03-26T04:26:21;94769.69;;;7.40;47.13
48156;BME280;35568;48.104;11.782;2023-03-26T04:28:51;94767.41;;;7.70;47.04
48156;BME280;35568;48.104;11.782;2023-03-26T04:31:21;94764.98;;;7.73;47.02
48156;BME280;35568;48.104;11.782;2023-03-26T04:33:50;94758.60;;;7.61;47.11
48156;BME280;35568;48.104;11.782;2023-03-26T04:36:17;94752.72;;;7.50;47.18
48156;BME280;35568;48.104;11.782;2023-03-26T04:38:46;94752.22;;;7.58;47.12
48156;BME280;35568;48.104;11.782;2023-03-26T04:41:13;94753.22;;;7.64;47.05
48156;BME280;35568;48.104;11.782;2023-03-26T04:43:40;94752.02;;;7.32;47.12
48156;BME280;35568;48.104;11.782;2023-03-26T04:46:07;94750.40;;;7.24;47.20
48156;BME280;35568;48.104;11.782;2023-03-26T04:48:34;94752.82;;;7.45;47.26
48156;BME280;35568;48.104;11.782;2023-03-26T04:51:01;94749.77;;;7.42;47.33
48156;BME280;35568;48.104;11.782;2023-03-26T04:53:28;94746.80;;;7.73;47.36
48156;BME280;35568;48.104;11.782;2023-03-26T04:55:57;94743.73;;;7.64;47.17
48156;BME280;35568;48.104;11.782;2023-03-26T04:58:26;94738.98;;;7.76;47.13
48156;BME280;35568;48.104;11.782;2023-03-26T05:00:52;94736.06;;;7.64;47.22
48156;BME280;35568;48.104;11.782;2023-03-26T05:03:19;94732.39;;;7.76;47.11
48156;BME280;35568;48.104;11.782;2023-03-26T05:05:47;94721.32;;;7.88;46.97
48156;BME280;35568;48.104;11.782;2023-03-26T05:08:14;94713.22;;;7.45;46.82
48156;BME280;35568;48.104;11.782;2023-03-26T05:10:41;94715.65;;;7.69;47.18
48156;BME280;35568;48.104;11.782;2023-03-26T05:13:07;94719.18;;;7.62;47.30
48156;BME280;35568;48.104;11.782;2023-03-26T05:15:34;94716.56;;;7.60;47.56
48156;BME280;35568;48.104;11.782;2023-03-26T05:18:01;94707.60;;;7.72;47.41
48156;BME280;35568;48.104;11.782;2023-03-26T05:20:29;94700.95;;;7.62;47.26
48156;BME280;35568;48.104;11.782;2023-03-26T05:22:56;94701.92;;;7.72;47.50
48156;BME280;35568;48.104;11.782;2023-03-26T05:25:22;94695.14;;;7.58;47.00
48156;BME280;35568;48.104;11.782;2023-03-26T05:27:49;94691.36;;;8.12;46.86
48156;BME280;35568;48.104;11.782;2023-03-26T05:30:18;94689.43;;;7.56;46.99
48156;BME280;35568;48.104;11.782;2023-03-26T05:32:47;94689.59;;;8.03;46.91
48156;BME280;35568;48.104;11.782;2023-03-26T05:35:15;94685.62;;;7.69;47.26
48156;BME280;35568;48.104;11.782;2023-03-26T05:37:43;94681.23;;;7.87;47.53
48156;BME280;35568;48.104;11.782;2023-03-26T05:40:11;94681.35;;;7.83;47.52
48156;BME280;35568;48.104;11.782;2023-03-26T05:42:39;94682.95;;;7.71;47.71
48156;BME280;35568;48.104;11.782;2023-03-26T05:45:09;94684.80;;;7.69;47.77
48156;BME280;35568;48.104;11.782;2023-03-26T05:47:37;94681.32;;;7.63;47.96
48156;BME280;35568;48.104;11.782;2023-03-26T05:50:05;94678.18;;;7.67;48.02
48156;BME280;35568;48.104;11.782;2023-03-26T05:52:33;94676.60;;;7.50;47.95
48156;BME280;35568;48.104;11.782;2023-03-26T05:55:00;94669.86;;;7.73;47.78
48156;BME280;35568;48.104;11.782;2023-03-26T05:57:28;94661.97;;;7.89;47.38
48156;BME280;35568;48.104;11.782;2023-03-26T05:59:55;94663.43;;;7.66;47.44
48156;BME280;35568;48.104;11.782;2023-03-26T06:02:22;94658.26;;;8.08;47.28
48156;BME280;35568;48.104;11.782;2023-03-26T06:04:49;94652.89;;;8.15;47.26
48156;BME280;35568;48.104;11.782;2023-03-26T06:07:16;94645.65;;;8.20;47.36
48156;BME280;35568;48.104;11.782;2023-03-26T06:09:43;94641.91;;;8.09;47.20
48156;BME280;35568;48.104;11.782;2023-03-26T06:12:10;94640.25;;;8.26;46.74
48156;BME280;35568;48.104;11.782;2023-03-26T06:14:38;94641.58;;;8.17;46.88
48156;BME280;35568;48.104;11.782;2023-03-26T06:17:04;94636.61;;;8.44;47.10
48156;BME280;35568;48.104;11.782;2023-03-26T06:19:31;94636.23;;;8.26;46.98
48156;BME280;35568;48.104;11.782;2023-03-26T06:21:59;94631.99;;;8.07;47.03
48156;BME280;35568;48.104;11.782;2023-03-26T06:24:26;94628.32;;;8.44;46.92
48156;BME280;35568;48.104;11.782;2023-03-26T06:26:59;94630.02;;;8.27;46.68
48156;BME280;35568;48.104;11.782;2023-03-26T06:29:27;94628.56;;;8.63;46.65
48156;BME280;35568;48.104;11.782;2023-03-26T06:31:53;94625.30;;;8.38;46.66
48156;BME280;35568;48.104;11.782;2023-03-26T06:34:20;94625.40;;;8.47;46.46
48156;BME280;35568;48.104;11.782;2023-03-26T06:36:47;94621.02;;;8.23;46.90
48156;BME280;35568;48.104;11.782;2023-03-26T06:39:14;94618.27;;;8.40;46.75
48156;BME280;35568;48.104;11.782;2023-03-26T06:41:41;94619.70;;;8.22;46.83
48156;BME280;35568;48.104;11.782;2023-03-26T06:44:08;94620.12;;;8.41;46.99
48156;BME280;35568;48.104;11.782;2023-03-26T06:46:34;94613.63;;;8.72;46.95
48156;BME280;35568;48.104;11.782;2023-03-26T06:49:01;94604.28;;;8.52;47.02
48156;BME280;35568;48.104;11.782;2023-03-26T06:51:28;94599.78;;;8.81;46.70
48156;BME280;35568;48.104;11.782;2023-03-26T06:53:55;94599.51;;;8.97;46.41
48156;BME280;35568;48.104;11.782;2023-03-26T06:56:22;94598.06;;;8.96;46.41
48156;BME280;35568;48.104;11.782;2023-03-26T06:58:48;94599.96;;;8.95;46.56
48156;BME280;35568;48.104;11.782;2023-03-26T07:01:15;94604.03;;;8.65;46.52
48156;BME280;35568;48.104;11.782;2023-03-26T07:03:42;94602.57;;;8.49;46.56
48156;BME280;35568;48.104;11.782;2023-03-26T07:06:09;94602.53;;;8.43;46.76
48156;BME280;35568;48.104;11.782;2023-03-26T07:08:36;94598.00;;;8.27;47.03
48156;BME280;35568;48.104;11.782;2023-03-26T07:11:03;94591.63;;;8.28;47.24
48156;BME280;35568;48.104;11.782;2023-03-26T07:13:30;94590.83;;;8.48;47.13
48156;BME280;35568;48.104;11.782;2023-03-26T07:15:57;94589.00;;;8.42;46.74
48156;BME280;35568;48.104;11.782;2023-03-26T07:18:24;94585.76;;;8.00;47.22
48156;BME280;35568;48.104;11.782;2023-03-26T07:20:51;94582.33;;;8.19;47.72
48156;BME280;35568;48.104;11.782;2023-03-26T07:23:19;94577.47;;;8.16;48.44
48156;BME280;35568;48.104;11.782;2023-03-26T07:25:47;94579.99;;;8.16;48.89
48156;BME280;35568;48.104;11.782;2023-03-26T07:28:22;94580.72;;;7.81;49.22
48156;BME280;35568;48.104;11.782;2023-03-26T07:30:59;94575.72;;;7.93;49.95
48156;BME280;35568;48.104;11.782;2023-03-26T07:33:34;94568.85;;;7.94;50.80
48156;BME280;35568;48.104;11.782;2023-03-26T07:36:12;94565.92;;;7.93;51.36
48156;BME280;35568;48.104;11.782;2023-03-26T07:38:53;94555.02;;;8.08;51.53
48156;BME280;35568;48.104;11.782;2023-03-26T07:41:32;94543.41;;;8.41;51.96
48156;BME280;35568;48.104;11.782;2023-03-26T07:44:24;94530.99;;;8.82;51.77
48156;BME280;35568;48.104;11.782;2023-03-26T07:46:59;94515.65;;;9.07;50.76
48156;BME280;35568;48.104;11.782;2023-03-26T07:49:28;94505.38;;;9.33;50.90
48156;BME280;35568;48.104;11.782;2023-03-26T07:51:56;94492.83;;;9.34;50.95
48156;BME280;35568;48.104;11.782;2023-03-26T07:54:23;94482.71;;;9.53;50.65
48156;BME280;35568;48.104;11.782;2023-03-26T07:56:53;94482.74;;;9.25;50.39
48156;BME280;35568;48.104;11.782;2023-03-26T07:59:26;94486.97;;;9.16;50.28
48156;BME280;35568;48.104;11.782;2023-03-26T08:02:13;94479.53;;;9.54;50.59
48156;BME280;35568;48.104;11.782;2023-03-26T08:04:56;94476.53;;;9.76;50.56
48156;BME280;35568;48.104;11.782;2023-03-26T08:07:32;94477.12;;;9.61;50.69
48156;BME280;35568;48.104;11.782;2023-03-26T08:10:09;94472.45;;;9.84;49.98
48156;BME280;35568;48.104;11.782;2023-03-26T08:12:47;94472.34;;;9.71;49.48
48156;BME280;35568;48.104;11.782;2023-03-26T08:15:22;94470.12;;;10.01;49.45
48156;BME280;35568;48.104;11.782;2023-03-26T08:17:56;94468.06;;;9.59;49.75
48156;BME280;35568;48.104;11.782;2023-03-26T08:20:31;94457.44;;;9.96;49.59
48156;BME280;35568;48.104;11.782;2023-03-26T08:23:07;94446.34;;;9.93;49.46
48156;BME280;35568;48.104;11.782;2023-03-26T08:25:48;94433.92;;;9.68;49.25
48156;BME280;35568;48.104;11.782;2023-03-26T08:28:29;94421.09;;;9.73;49.12
48156;BME280;35568;48.104;11.782;2023-03-26T08:31:01;94426.84;;;10.16;48.69
48156;BME280;35568;48.104;11.782;2023-03-26T08:33:28;94427.67;;;10.06;47.94
48156;BME280;35568;48.104;11.782;2023-03-26T08:35:56;94427.36;;;10.22;47.24
48156;BME280;35568;48.104;11.782;2023-03-26T08:38:23;94430.86;;;10.52;46.72
48156;BME280;35568;48.104;11.782;2023-03-26T08:41:43;94425.95;;;10.18;46.13
48156;BME280;35568;48.104;11.782;2023-03-26T08:44:57;94417.16;;;10.53;44.72
48156;BME280;35568;48.104;11.782;2023-03-26T08:50:18;94397.16;;;11.42;43.43
48156;BME280;35568;48.104;11.782;2023-03-26T08:53:06;94403.17;;;10.90;43.08
48156;BME280;35568;48.104;11.782;2023-03-26T08:55:48;94404.91;;;10.50;43.48
48156;BME280;35568;48.104;11.782;2023-03-26T09:04:05;94422.62;;;10.90;44.34
48156;BME280;35568;48.104;11.782;2023-03-26T09:06:56;94420.76;;;10.32;44.08
48156;BME280;35568;48.104;11.782;2023-03-26T09:09:51;94422.11;;;10.95;44.28
48156;BME280;35568;48.104;11.782;2023-03-26T09:13:12;94412.05;;;10.97;44.50
48156;BME280;35568;48.104;11.782;2023-03-26T09:16:03;94412.93;;;10.65;45.42
48156;BME280;35568;48.104;11.782;2023-03-26T09:19:10;94413.99;;;10.48;45.09
48156;BME280;35568;48.104;11.782;2023-03-26T09:22:52;94414.73;;;10.56;45.59
48156;BME280;35568;48.104;11.782;2023-03-26T09:26:03;94414.84;;;10.11;45.14
48156;BME280;35568;48.104;11.782;2023-03-26T09:28:57;94399.00;;;10.36;45.39
48156;BME280;35568;48.104;11.782;2023-03-26T09:32:24;94401.53;;;10.07;45.22
48156;BME280;35568;48.104;11.782;2023-03-26T09:35:11;94390.85;;;10.51;44.94
48156;BME280;35568;48.104;11.782;2023-03-26T09:37:50;94375.20;;;10.56;44.66
48156;BME280;35568;48.104;11.782;2023-03-26T09:40:33;94368.45;;;10.32;45.93
48156;BME280;35568;48.104;11.782;2023-03-26T09:43:20;94365.39;;;10.62;45.99
48156;BME280;35568;48.104;11.782;2023-03-26T09:46:04;94370.14;;;10.18;46.59
48156;BME280;35568;48.104;11.782;2023-03-26T09:48:55;94371.83;;;9.84;47.97
48156;BME280;35568;48.104;11.782;2023-03-26T09:51:40;94372.02;;;9.92;48.44
48156;BME280;35568;48.104;11.782;2023-03-26T09:56:33;94372.20;;;9.93;48.91
48156;BME280;35568;48.104;11.782;2023-03-26T09:59:15;94364.89;;;9.75;49.84
48156;BME280;35568;48.104;11.782;2023-03-26T10:01:56;94334.02;;;9.92;50.68
48156;BME280;35568;48.104;11.782;2023-03-26T10:04:58;94348.50;;;9.53;50.72
48156;BME280;35568;48.104;11.782;2023-03-26T10:07:40;94376.14;;;9.65;50.96
48156;BME280;35568;48.104;11.782;2023-03-26T10:10:17;94381.35;;;9.36;51.11
48156;BME280;35568;48.104;11.782;2023-03-26T10:12:51;94379.37;;;9.92;50.77
48156;BME280;35568;48.104;11.782;2023-03-26T10:15:30;94357.75;;;10.25;50.78
48156;BME280;35568;48.104;11.782;2023-03-26T10:18:08;94352.86;;;10.33;50.40
48156;BME280;35568;48.104;11.782;2023-03-26T10:20:51;94348.49;;;10.29;49.19
48156;BME280;35568;48.104;11.782;2023-03-26T10:23:35;94351.00;;;10.08;49.74
48156;BME280;35568;48.104;11.782;2023-03-26T10:26:14;94344.72;;;9.69;49.69
48156;BME280;35568;48.104;11.782;2023-03-26T10:28:57;94338.51;;;9.82;50.56
48156;BME280;35568;48.104;11.782;2023-03-26T10:31:36;94336.12;;;9.84;50.84
48156;BME280;35568;48.104;11.782;2023-03-26T10:34:13;94340.20;;;9.91;50.97
48156;BME280;35568;48.104;11.782;2023-03-26T10:36:54;94337.88;;;9.85;50.22
48156;BME280;35568;48.104;11.782;2023-03-26T10:39:37;94339.11;;;9.87;50.10
48156;BME280;35568;48.104;11.782;2023-03-26T10:42:21;94348.26;;;9.72;50.64
48156;BME280;35568;48.104;11.782;2023-03-26T10:45:09;94344.88;;;9.65;51.35
48156;BME280;35568;48.104;11.782;2023-03-26T10:48:20;94356.45;;;9.54;51.52
48156;BME280;35568;48.104;11.782;2023-03-26T10:50:56;94367.40;;;9.55;51.08
48156;BME280;35568;48.104;11.782;2023-03-26T10:53:34;94378.13;;;9.09;52.39
48156;BME280;35568;48.104;11.782;2023-03-26T10:56:08;94367.35;;;8.79;53.63
48156;BME280;35568;48.104;11.782;2023-03-26T10:58:41;94377.79;;;8.79;53.96
48156;BME280;35568;48.104;11.782;2023-03-26T11:01:14;94368.95;;;8.64;54.15
48156;BME280;35568;48.104;11.782;2023-03-26T11:03:46;94367.40;;;8.37;54.26
48156;BME280;35568;48.104;11.782;2023-03-26T11:06:24;94360.75;;;8.34;53.96
48156;BME280;35568;48.104;11.782;2023-03-26T11:08:58;94362.39;;;8.01;55.19
48156;BME280;35568;48.104;11.782;2023-03-26T11:11:32;94348.06;;;8.12;55.09
48156;BME280;35568;48.104;11.782;2023-03-26T11:14:09;94334.13;;;8.50;55.34
48156;BME280;35568;48.104;11.782;2023-03-26T11:16:51;94331.17;;;8.39;54.96
48156;BME280;35568;48.104;11.782;2023-03-26T11:19:29;94335.84;;;8.57;55.06
48156;BME280;35568;48.104;11.782;2023-03-26T11:22:04;94332.10;;;8.81;54.64
48156;BME280;35568;48.104;11.782;2023-03-26T11:24:47;94321.61;;;8.89;54.90
48156;BME280;35568;48.104;11.782;2023-03-26T11:27:26;94323.62;;;9.05;54.69
48156;BME280;35568;48.104;11.782;2023-03-26T11:30:06;94323.00;;;8.97;54.39
48156;BME280;35568;48.104;11.782;2023-03-26T11:32:39;94324.45;;;8.54;55.05
48156;BME280;35568;48.104;11.782;2023-03-26T11:35:16;94334.29;;;8.87;55.09
48156;BME280;35568;48.104;11.782;2023-03-26T11:37:50;94316.11;;;8.83;55.59
48156;BME280;35568;48.104;11.782;2023-03-26T11:40:22;94318.48;;;8.79;55.30
48156;BME280;35568;48.104;11.782;2023-03-26T11:42:59;94322.34;;;8.65;55.33
48156;BME280;35568;48.104;11.782;2023-03-26T11:45:29;94312.98;;;8.66;56.05
48156;BME280;35568;48.104;11.782;2023-03-26T11:48:02;94323.94;;;7.87;55.73
48156;BME280;35568;48.104;11.782;2023-03-26T11:50:32;94322.03;;;8.15;55.45
48156;BME280;35568;48.104;11.782;2023-03-26T11:53:09;94332.32;;;7.57;55.38
48156;BME280;35568;48.104;11.782;2023-03-26T11:55:38;94329.21;;;7.23;56.79
48156;BME280;35568;48.104;11.782;2023-03-26T11:58:19;94304.80;;;7.22;58.20
48156;BME280;35568;48.104;11.782;2023-03-26T12:00:47;94323.75;;;7.41;57.07
48156;BME280;35568;48.104;11.782;2023-03-26T12:03:14;94330.80;;;7.36;56.16
48156;BME280;35568;48.104;11.782;2023-03-26T12:05:47;94331.89;;;7.28;57.01
48156;BME280;35568;48.104;11.782;2023-03-26T12:08:20;94337.68;;;7.20;57.17
48156;BME280;35568;48.104;11.782;2023-03-26T12:10:57;94327.87;;;6.83;58.03
48156;BME280;35568;48.104;11.782;2023-03-26T12:13:31;94324.74;;;7.35;57.34
48156;BME280;35568;48.104;11.782;2023-03-26T12:16:06;94315.51;;;7.56;57.58
48156;BME280;35568;48.104;11.782;2023-03-26T12:18:34;94312.84;;;7.52;56.87
48156;BME280;35568;48.104;11.782;2023-03-26T12:21:05;94288.65;;;7.60;57.44
48156;BME280;35568;48.104;11.782;2023-03-26T12:23:39;94278.33;;;7.79;56.86
48156;BME280;35568;48.104;11.782;2023-03-26T12:26:14;94280.30;;;7.88;56.83
48156;BME280;35568;48.104;11.782;2023-03-26T12:28:47;94292.59;;;8.21;56.61
48156;BME280;35568;48.104;11.782;2023-03-26T12:31:15;94287.04;;;8.35;55.76
48156;BME280;35568;48.104;11.782;2023-03-26T12:33:43;94294.29;;;8.34;54.26
48156;BME280;35568;48.104;11.782;2023-03-26T12:36:19;94285.56;;;8.59;55.22
48156;BME280;35568;48.104;11.782;2023-03-26T12:38:47;94277.33;;;8.84;54.10
48156;BME280;35568;48.104;11.782;2023-03-26T12:41:15;94273.65;;;8.73;54.28
48156;BME280;35568;48.104;11.782;2023-03-26T12:43:44;94273.90;;;8.18;55.42
48156;BME280;35568;48.104;11.782;2023-03-26T12:46:22;94282.79;;;8.09;55.37
48156;BME280;35568;48.104;11.782;2023-03-26T12:48:51;94265.23;;;8.40;55.40
48156;BME280;35568;48.104;11.782;2023-03-26T12:51:27;94259.22;;;8.81;54.69
48156;BME280;35568;48.104;11.782;2023-03-26T12:54:06;94265.16;;;8.50;53.77
48156;BME280;35568;48.104;11.782;2023-03-26T12:56:46;94262.66;;;8.77;54.45
48156;BME280;35568;48.104;11.782;2023-03-26T12:59:28;94257.05;;;9.15;53.76
48156;BME280;35568;48.104;11.782;2023-03-26T13:02:10;94250.21;;;9.15;52.97
48156;BME280;35568;48.104;11.782;2023-03-26T13:04:54;94250.59;;;8.60;52.90
48156;BME280;35568;48.104;11.782;2023-03-26T13:07:38;94251.20;;;8.75;52.65
48156;BME280;35568;48.104;11.782;2023-03-26T13:10:29;94253.42;;;9.17;52.90
48156;BME280;35568;48.104;11.782;2023-03-26T13:13:10;94243.52;;;9.34;52.47
48156;BME280;35568;48.104;11.782;2023-03-26T13:15:47;94243.32;;;9.21;51.89
48156;BME280;35568;48.104;11.782;2023-03-26T13:18:25;94235.66;;;9.61;51.87
48156;BME280;35568;48.104;11.782;2023-03-26T13:20:56;94232.18;;;9.56;51.94
48156;BME280;35568;48.104;11.782;2023-03-26T13:23:38;94234.97;;;9.72;51.13
48156;BME280;35568;48.104;11.782;2023-03-26T13:26:18;94235.71;;;9.74;50.86
48156;BME280;35568;48.104;11.782;2023-03-26T13:28:54;94237.04;;;9.50;51.34
48156;BME280;35568;48.104;11.782;2023-03-26T13:31:27;94238.16;;;9.62;51.24
48156;BME280;35568;48.104;11.782;2023-03-26T13:34:02;94236.56;;;9.51;52.14
48156;BME280;35568;48.104;11.782;2023-03-26T13:36:42;94239.60;;;9.58;50.92
48156;BME280;35568;48.104;11.782;2023-03-26T13:39:20;94244.16;;;9.77;50.95
48156;BME280;35568;48.104;11.782;2023-03-26T13:42:04;94250.34;;;9.87;50.75
48156;BME280;35568;48.104;11.782;2023-03-26T13:44:45;94239.17;;;10.11;50.43